sensor_id;sensor_type;location;lat;lon;timestamp;temperature;humidity
71304;DHT22;59091;47.446;19.148;2022-09-01T00:00:23;19.93;65.02
71304;DHT22;59091;47.446;19.148;2022-09-01T00:02:54;19.81;66.29
71304;DHT22;59091;47.446;19.148;2022-09-01T00:05:20;19.68;66.72
71304;DHT22;59091;47.446;19.148;2022-09-01T00:07:46;19.78;66.59
71304;DHT22;59091;47.446;19.148;2022-09-01T00:10:12;19.91;65.35
71304;DHT22;59091;47.446;19.148;2022-09-01T00:12:38;19.64;66.35
71304;DHT22;59091;47.446;19.148;2022-09-01T00:15:05;19.82;65.60
71304;DHT22;59091;47.446;19.148;2022-09-01T00:17:31;19.65;66.52
71304;DHT22;59091;47.446;19.148;2022-09-01T00:19:58;19.68;66.78
71304;DHT22;59091;47.446;19.148;2022-09-01T00:22:23;19.59;66.91
71304;DHT22;59091;47.446;19.148;2022-09-01T00:24:48;19.72;67.57
71304;DHT22;59091;47.446;19.148;2022-09-01T00:27:14;19.62;67.51
71304;DHT22;59091;47.446;19.148;2022-09-01T00:29:39;19.58;68.13
71304;DHT22;59091;47.446;19.148;2022-09-01T00:32:05;19.71;68.53
71304;DHT22;59091;47.446;19.148;2022-09-01T00:34:30;19.59;68.99
71304;DHT22;59091;47.446;19.148;2022-09-01T00:36:56;19.65;68.95
71304;DHT22;59091;47.446;19.148;2022-09-01T00:39:21;19.65;69.07
71304;DHT22;59091;47.446;19.148;2022-09-01T00:41:47;19.62;70.22
71304;DHT22;59091;47.446;19.148;2022-09-01T00:44:16;19.92;68.84
71304;DHT22;59091;47.446;19.148;2022-09-01T00:46:48;19.78;69.04
71304;DHT22;59091;47.446;19.148;2022-09-01T00:49:34;19.51;69.89
71304;DHT22;59091;47.446;19.148;2022-09-01T00:52:14;19.43;70.22
71304;DHT22;59091;47.446;19.148;2022-09-01T00:54:44;19.58;69.70
71304;DHT22;59091;47.446;19.148;2022-09-01T00:57:10;19.35;70.23
71304;DHT22;59091;47.446;19.148;2022-09-01T00:59:50;19.48;70.81
71304;DHT22;59091;47.446;19.148;2022-09-01T01:02:17;19.68;69.94
71304;DHT22;59091;47.446;19.148;2022-09-01T01:04:43;19.67;69.47
71304;DHT22;59091;47.446;19.148;2022-09-01T01:07:09;19.62;69.49
71304;DHT22;59091;47.446;19.148;2022-09-01T01:09:39;19.64;70.16
71304;DHT22;59091;47.446;19.148;2022-09-01T01:12:06;19.69;70.93
71304;DHT22;59091;47.446;19.148;2022-09-01T01:14:43;19.62;71.14
71304;DHT22;59091;47.446;19.148;2022-09-01T01:17:10;19.65;70.59
71304;DHT22;59091;47.446;19.148;2022-09-01T01:19:48;19.72;70.50
71304;DHT22;59091;47.446;19.148;2022-09-01T01:25:38;19.82;70.66
71304;DHT22;59091;47.446;19.148;2022-09-01T01:30:49;19.71;72.07
71304;DHT22;59091;47.446;19.148;2022-09-01T01:33:21;19.62;71.09
71304;DHT22;59091;47.446;19.148;2022-09-01T01:35:48;19.53;71.11
71304;DHT22;59091;47.446;19.148;2022-09-01T01:38:16;19.48;71.97
71304;DHT22;59091;47.446;19.148;2022-09-01T01:40:41;19.57;71.60
71304;DHT22;59091;47.446;19.148;2022-09-01T01:43:07;19.55;71.20
71304;DHT22;59091;47.446;19.148;2022-09-01T01:45:35;19.57;70.47
71304;DHT22;59091;47.446;19.148;2022-09-01T01:48:01;19.58;70.90
71304;DHT22;59091;47.446;19.148;2022-09-01T01:50:35;19.55;71.17
71304;DHT22;59091;47.446;19.148;2022-09-01T01:53:05;19.59;70.85
71304;DHT22;59091;47.446;19.148;2022-09-01T01:55:31;19.71;70.59
71304;DHT22;59091;47.446;19.148;2022-09-01T01:57:58;19.74;70.88
71304;DHT22;59091;47.446;19.148;2022-09-01T02:00:27;19.69;70.45
71304;DHT22;59091;47.446;19.148;2022-09-01T02:02:53;19.61;70.80
71304;DHT22;59091;47.446;19.148;2022-09-01T02:05:28;19.51;72.39
71304;DHT22;59091;47.446;19.148;2022-09-01T02:07:56;19.50;72.69
71304;DHT22;59091;47.446;19.148;2022-09-01T02:10:26;19.34;72.60
71304;DHT22;59091;47.446;19.148;2022-09-01T02:12:53;19.31;72.79
71304;DHT22;59091;47.446;19.148;2022-09-01T02:15:19;18.97;73.09
71304;DHT22;59091;47.446;19.148;2022-09-01T02:17:45;18.70;73.39
71304;DHT22;59091;47.446;19.148;2022-09-01T02:20:11;18.73;73.92
71304;DHT22;59091;47.446;19.148;2022-09-01T02:22:41;18.59;74.35
71304;DHT22;59091;47.446;19.148;2022-09-01T02:25:09;18.60;74.45
71304;DHT22;59091;47.446;19.148;2022-09-01T02:27:35;18.65;74.74
71304;DHT22;59091;47.446;19.148;2022-09-01T02:30:04;18.49;74.88
71304;DHT22;59091;47.446;19.148;2022-09-01T02:32:35;18.45;75.05
71304;DHT22;59091;47.446;19.148;2022-09-01T02:35:01;18.51;74.98
71304;DHT22;59091;47.446;19.148;2022-09-01T02:37:31;18.48;74.34
71304;DHT22;59091;47.446;19.148;2022-09-01T02:39:57;18.53;74.25
71304;DHT22;59091;47.446;19.148;2022-09-01T02:42:22;18.65;74.46
71304;DHT22;59091;47.446;19.148;2022-09-01T02:44:54;18.62;74.15
71304;DHT22;59091;47.446;19.148;2022-09-01T02:47:21;18.51;74.38
71304;DHT22;59091;47.446;19.148;2022-09-01T02:49:50;18.45;74.63
71304;DHT22;59091;47.446;19.148;2022-09-01T02:52:16;18.56;74.52
71304;DHT22;59091;47.446;19.148;2022-09-01T02:54:45;18.59;74.23
71304;DHT22;59091;47.446;19.148;2022-09-01T02:57:13;18.42;74.09
71304;DHT22;59091;47.446;19.148;2022-09-01T02:59:39;18.45;74.09
71304;DHT22;59091;47.446;19.148;2022-09-01T03:02:06;18.62;74.05
71304;DHT22;59091;47.446;19.148;2022-09-01T03:04:32;18.55;74.55
71304;DHT22;59091;47.446;19.148;2022-09-01T03:07:00;18.53;74.56
71304;DHT22;59091;47.446;19.148;2022-09-01T03:09:25;18.59;74.22
71304;DHT22;59091;47.446;19.148;2022-09-01T03:11:52;18.46;73.88
71304;DHT22;59091;47.446;19.148;2022-09-01T03:14:20;18.28;73.84
71304;DHT22;59091;47.446;19.148;2022-09-01T03:16:46;18.14;73.87
71304;DHT22;59091;47.446;19.148;2022-09-01T03:19:11;18.17;74.11
71304;DHT22;59091;47.446;19.148;2022-09-01T03:21:38;18.24;73.98
71304;DHT22;59091;47.446;19.148;2022-09-01T03:24:12;18.19;74.19
71304;DHT22;59091;47.446;19.148;2022-09-01T03:26:39;18.17;74.18
71304;DHT22;59091;47.446;19.148;2022-09-01T03:29:06;18.15;74.27
71304;DHT22;59091;47.446;19.148;2022-09-01T03:31:33;18.11;74.26
71304;DHT22;59091;47.446;19.148;2022-09-01T03:33:59;17.96;74.45
71304;DHT22;59091;47.446;19.148;2022-09-01T03:36:26;17.98;74.72
71304;DHT22;59091;47.446;19.148;2022-09-01T03:38:53;17.96;74.83
71304;DHT22;59091;47.446;19.148;2022-09-01T03:41:23;18.04;74.70
71304;DHT22;59091;47.446;19.148;2022-09-01T03:43:49;17.96;75.38
71304;DHT22;59091;47.446;19.148;2022-09-01T03:46:16;17.96;74.96
71304;DHT22;59091;47.446;19.148;2022-09-01T03:48:54;17.98;75.22
71304;DHT22;59091;47.446;19.148;2022-09-01T03:51:23;17.90;75.19
71304;DHT22;59091;47.446;19.148;2022-09-01T03:53:53;17.91;74.73
71304;DHT22;59091;47.446;19.148;2022-09-01T03:56:19;17.78;75.04
71304;DHT22;59091;47.446;19.148;2022-09-01T03:58:45;17.83;75.43
71304;DHT22;59091;47.446;19.148;2022-09-01T04:01:12;17.62;75.28
71304;DHT22;59091;47.446;19.148;2022-09-01T04:03:38;17.60;75.44
71304;DHT22;59091;47.446;19.148;2022-09-01T04:06:07;17.74;75.15
71304;DHT22;59091;47.446;19.148;2022-09-01T04:08:33;17.74;75.28
71304;DHT22;59091;47.446;19.148;2022-09-01T04:11:02;17.60;74.63
71304;DHT22;59091;47.446;19.148;2022-09-01T04:13:33;17.64;74.85
71304;DHT22;59091;47.446;19.148;2022-09-01T04:15:59;17.50;75.82
71304;DHT22;59091;47.446;19.148;2022-09-01T04:18:25;17.47;75.79
71304;DHT22;59091;47.446;19.148;2022-09-01T04:20:53;17.50;75.45
71304;DHT22;59091;47.446;19.148;2022-09-01T04:23:29;17.54;75.26
71304;DHT22;59091;47.446;19.148;2022-09-01T04:28:46;17.32;75.89
71304;DHT22;59091;47.446;19.148;2022-09-01T04:31:15;17.30;76.12
71304;DHT22;59091;47.446;19.148;2022-09-01T04:33:44;17.27;76.78
71304;DHT22;59091;47.446;19.148;2022-09-01T04:36:20;17.36;76.61
71304;DHT22;59091;47.446;19.148;2022-09-01T04:38:47;17.30;76.66
71304;DHT22;59091;47.446;19.148;2022-09-01T04:41:13;17.19;77.15
71304;DHT22;59091;47.446;19.148;2022-09-01T04:43:43;17.36;77.20
71304;DHT22;59091;47.446;19.148;2022-09-01T04:46:11;17.11;76.72
71304;DHT22;59091;47.446;19.148;2022-09-01T04:48:39;17.16;76.98
71304;DHT22;59091;47.446;19.148;2022-09-01T04:51:08;17.29;76.84
71304;DHT22;59091;47.446;19.148;2022-09-01T04:53:35;17.19;76.62
71304;DHT22;59091;47.446;19.148;2022-09-01T04:56:07;17.16;77.14
71304;DHT22;59091;47.446;19.148;2022-09-01T04:58:34;17.27;77.41
71304;DHT22;59091;47.446;19.148;2022-09-01T05:01:12;17.36;77.74
71304;DHT22;59091;47.446;19.148;2022-09-01T05:03:38;17.39;77.42
71304;DHT22;59091;47.446;19.148;2022-09-01T05:06:04;17.37;77.45
71304;DHT22;59091;47.446;19.148;2022-09-01T05:08:30;17.43;77.37
71304;DHT22;59091;47.446;19.148;2022-09-01T05:10:56;17.45;77.37
71304;DHT22;59091;47.446;19.148;2022-09-01T05:13:21;17.26;77.77
71304;DHT22;59091;47.446;19.148;2022-09-01T05:15:59;17.39;77.75
71304;DHT22;59091;47.446;19.148;2022-09-01T05:18:26;17.35;77.50
71304;DHT22;59091;47.446;19.148;2022-09-01T05:20:53;17.46;77.17
71304;DHT22;59091;47.446;19.148;2022-09-01T05:23:19;17.74;77.24
71304;DHT22;59091;47.446;19.148;2022-09-01T05:25:47;17.77;76.72
71304;DHT22;59091;47.446;19.148;2022-09-01T05:28:18;18.92;74.09
71304;DHT22;59091;47.446;19.148;2022-09-01T05:30:45;19.69;70.90
71304;DHT22;59091;47.446;19.148;2022-09-01T05:33:13;20.26;68.84
71304;DHT22;59091;47.446;19.148;2022-09-01T05:35:41;20.69;67.01
71304;DHT22;59091;47.446;19.148;2022-09-01T05:38:11;20.79;66.12
71304;DHT22;59091;47.446;19.148;2022-09-01T05:40:41;20.54;66.14
71304;DHT22;59091;47.446;19.148;2022-09-01T05:43:09;20.44;66.79
71304;DHT22;59091;47.446;19.148;2022-09-01T05:45:38;19.86;68.13
71304;DHT22;59091;47.446;19.148;2022-09-01T05:48:06;19.59;69.67
71304;DHT22;59091;47.446;19.148;2022-09-01T05:50:34;19.43;70.66
71304;DHT22;59091;47.446;19.148;2022-09-01T05:52:59;19.20;71.44
71304;DHT22;59091;47.446;19.148;2022-09-01T05:55:24;19.06;72.41
71304;DHT22;59091;47.446;19.148;2022-09-01T05:57:51;19.10;72.74
71304;DHT22;59091;47.446;19.148;2022-09-01T06:00:18;19.44;72.12
71304;DHT22;59091;47.446;19.148;2022-09-01T06:02:45;19.91;70.17
71304;DHT22;59091;47.446;19.148;2022-09-01T06:05:11;20.08;69.30
71304;DHT22;59091;47.446;19.148;2022-09-01T06:07:39;19.53;70.33
71304;DHT22;59091;47.446;19.148;2022-09-01T06:10:07;19.46;70.88
71304;DHT22;59091;47.446;19.148;2022-09-01T06:12:33;18.90;71.66
71304;DHT22;59091;47.446;19.148;2022-09-01T06:14:58;18.59;71.90
71304;DHT22;59091;47.446;19.148;2022-09-01T06:17:25;18.62;73.40
71304;DHT22;59091;47.446;19.148;2022-09-01T06:19:54;18.46;72.85
71304;DHT22;59091;47.446;19.148;2022-09-01T06:22:21;18.05;73.67
71304;DHT22;59091;47.446;19.148;2022-09-01T06:24:48;17.86;73.57
71304;DHT22;59091;47.446;19.148;2022-09-01T06:27:16;18.05;73.68
71304;DHT22;59091;47.446;19.148;2022-09-01T06:29:43;18.00;74.02
71304;DHT22;59091;47.446;19.148;2022-09-01T06:32:09;18.07;73.84
71304;DHT22;59091;47.446;19.148;2022-09-01T06:34:43;18.09;74.01
71304;DHT22;59091;47.446;19.148;2022-09-01T06:37:12;18.51;73.62
71304;DHT22;59091;47.446;19.148;2022-09-01T06:39:37;18.45;72.17
71304;DHT22;59091;47.446;19.148;2022-09-01T06:42:03;18.34;71.94
71304;DHT22;59091;47.446;19.148;2022-09-01T06:44:29;18.46;73.08
71304;DHT22;59091;47.446;19.148;2022-09-01T06:46:57;18.48;73.34
71304;DHT22;59091;47.446;19.148;2022-09-01T06:49:26;18.62;72.39
71304;DHT22;59091;47.446;19.148;2022-09-01T06:52:01;18.66;72.75
71304;DHT22;59091;47.446;19.148;2022-09-01T06:54:30;18.46;71.29
71304;DHT22;59091;47.446;19.148;2022-09-01T06:56:58;18.65;72.32
71304;DHT22;59091;47.446;19.148;2022-09-01T06:59:27;18.69;71.85
71304;DHT22;59091;47.446;19.148;2022-09-01T07:01:57;18.17;71.96
71304;DHT22;59091;47.446;19.148;2022-09-01T07:04:26;18.44;72.32
71304;DHT22;59091;47.446;19.148;2022-09-01T07:06:54;18.59;71.65
71304;DHT22;59091;47.446;19.148;2022-09-01T07:09:19;18.48;71.80
71304;DHT22;59091;47.446;19.148;2022-09-01T07:11:45;18.44;71.22
71304;DHT22;59091;47.446;19.148;2022-09-01T07:14:10;18.39;71.50
71304;DHT22;59091;47.446;19.148;2022-09-01T07:16:41;18.39;71.28
71304;DHT22;59091;47.446;19.148;2022-09-01T07:19:09;18.51;71.44
71304;DHT22;59091;47.446;19.148;2022-09-01T07:21:40;18.59;71.79
71304;DHT22;59091;47.446;19.148;2022-09-01T07:24:06;18.72;71.88
71304;DHT22;59091;47.446;19.148;2022-09-01T07:26:32;18.75;72.11
71304;DHT22;59091;47.446;19.148;2022-09-01T07:29:00;18.63;71.14
71304;DHT22;59091;47.446;19.148;2022-09-01T07:31:32;18.86;71.10
71304;DHT22;59091;47.446;19.148;2022-09-01T07:34:02;18.96;70.25
71304;DHT22;59091;47.446;19.148;2022-09-01T07:36:30;19.17;71.94
71304;DHT22;59091;47.446;19.148;2022-09-01T07:38:56;20.39;67.87
71304;DHT22;59091;47.446;19.148;2022-09-01T07:41:24;20.95;63.84
71304;DHT22;59091;47.446;19.148;2022-09-01T07:43:50;21.52;63.40
71304;DHT22;59091;47.446;19.148;2022-09-01T07:46:22;22.03;61.57
71304;DHT22;59091;47.446;19.148;2022-09-01T07:48:49;22.14;60.20
71304;DHT22;59091;47.446;19.148;2022-09-01T07:51:19;22.37;59.83
71304;DHT22;59091;47.446;19.148;2022-09-01T07:53:46;22.52;59.69
71304;DHT22;59091;47.446;19.148;2022-09-01T07:56:17;22.27;59.93
71304;DHT22;59091;47.446;19.148;2022-09-01T07:58:44;22.47;59.68
71304;DHT22;59091;47.446;19.148;2022-09-01T08:01:12;22.51;58.94
71304;DHT22;59091;47.446;19.148;2022-09-01T08:03:40;22.68;58.60
71304;DHT22;59091;47.446;19.148;2022-09-01T08:06:08;22.21;58.64
71304;DHT22;59091;47.446;19.148;2022-09-01T08:08:35;21.76;60.89
71304;DHT22;59091;47.446;19.148;2022-09-01T08:11:01;21.92;59.39
71304;DHT22;59091;47.446;19.148;2022-09-01T08:13:26;22.00;61.56
71304;DHT22;59091;47.446;19.148;2022-09-01T08:15:52;21.93;61.02
71304;DHT22;59091;47.446;19.148;2022-09-01T08:18:18;22.07;60.87
71304;DHT22;59091;47.446;19.148;2022-09-01T08:20:43;22.02;60.77
71304;DHT22;59091;47.446;19.148;2022-09-01T08:23:14;22.07;60.32
71304;DHT22;59091;47.446;19.148;2022-09-01T08:25:40;22.31;60.01
71304;DHT22;59091;47.446;19.148;2022-09-01T08:28:06;22.18;59.24
71304;DHT22;59091;47.446;19.148;2022-09-01T08:30:33;21.70;60.86
71304;DHT22;59091;47.446;19.148;2022-09-01T08:32:59;21.56;60.78
71304;DHT22;59091;47.446;19.148;2022-09-01T08:35:25;21.30;60.23
71304;DHT22;59091;47.446;19.148;2022-09-01T08:37:54;20.92;61.86
71304;DHT22;59091;47.446;19.148;2022-09-01T08:40:19;20.94;61.68
71304;DHT22;59091;47.446;19.148;2022-09-01T08:43:17;20.91;61.32
71304;DHT22;59091;47.446;19.148;2022-09-01T08:45:54;20.88;61.82
71304;DHT22;59091;47.446;19.148;2022-09-01T08:48:32;20.63;62.12
71304;DHT22;59091;47.446;19.148;2022-09-01T08:51:07;20.47;62.90
71304;DHT22;59091;47.446;19.148;2022-09-01T08:53:44;20.53;63.05
71304;DHT22;59091;47.446;19.148;2022-09-01T08:56:11;20.67;62.22
71304;DHT22;59091;47.446;19.148;2022-09-01T08:58:37;20.50;61.76
71304;DHT22;59091;47.446;19.148;2022-09-01T09:01:16;20.47;62.26
71304;DHT22;59091;47.446;19.148;2022-09-01T09:04:02;20.76;62.51
71304;DHT22;59091;47.446;19.148;2022-09-01T09:06:55;20.97;61.99
71304;DHT22;59091;47.446;19.148;2022-09-01T09:10:10;21.34;60.36
71304;DHT22;59091;47.446;19.148;2022-09-01T09:15:42;21.55;59.01
71304;DHT22;59091;47.446;19.148;2022-09-01T09:18:16;21.79;57.46
71304;DHT22;59091;47.446;19.148;2022-09-01T09:20:44;21.70;57.50
71304;DHT22;59091;47.446;19.148;2022-09-01T09:23:27;21.78;57.93
71304;DHT22;59091;47.446;19.148;2022-09-01T09:25:54;21.73;56.43
71304;DHT22;59091;47.446;19.148;2022-09-01T09:28:19;21.90;56.79
71304;DHT22;59091;47.446;19.148;2022-09-01T09:30:44;22.02;55.73
71304;DHT22;59091;47.446;19.148;2022-09-01T09:33:34;22.03;56.00
71304;DHT22;59091;47.446;19.148;2022-09-01T09:36:21;21.73;56.17
71304;DHT22;59091;47.446;19.148;2022-09-01T09:41:27;22.02;58.01
71304;DHT22;59091;47.446;19.148;2022-09-01T09:51:41;22.47;54.47
71304;DHT22;59091;47.446;19.148;2022-09-01T09:54:12;22.75;52.79
71304;DHT22;59091;47.446;19.148;2022-09-01T09:56:38;22.67;53.92
71304;DHT22;59091;47.446;19.148;2022-09-01T09:59:26;22.64;53.38
71304;DHT22;59091;47.446;19.148;2022-09-01T10:01:57;22.84;52.87
71304;DHT22;59091;47.446;19.148;2022-09-01T10:04:36;22.79;53.06
71304;DHT22;59091;47.446;19.148;2022-09-01T10:07:22;22.76;52.80
71304;DHT22;59091;47.446;19.148;2022-09-01T10:09:48;23.08;52.09
71304;DHT22;59091;47.446;19.148;2022-09-01T10:12:15;23.11;52.15
71304;DHT22;59091;47.446;19.148;2022-09-01T10:14:44;23.03;52.06
71304;DHT22;59091;47.446;19.148;2022-09-01T10:17:18;23.16;51.37
71304;DHT22;59091;47.446;19.148;2022-09-01T10:19:57;22.91;51.70
71304;DHT22;59091;47.446;19.148;2022-09-01T10:22:29;22.98;51.00
71304;DHT22;59091;47.446;19.148;2022-09-01T10:24:55;23.08;51.82
71304;DHT22;59091;47.446;19.148;2022-09-01T10:27:24;23.36;50.43
71304;DHT22;59091;47.446;19.148;2022-09-01T10:29:56;23.46;50.38
71304;DHT22;59091;47.446;19.148;2022-09-01T10:32:31;23.59;50.16
71304;DHT22;59091;47.446;19.148;2022-09-01T10:34:57;23.52;49.80
71304;DHT22;59091;47.446;19.148;2022-09-01T10:37:24;23.57;49.67
71304;DHT22;59091;47.446;19.148;2022-09-01T10:40:09;23.53;49.67
71304;DHT22;59091;47.446;19.148;2022-09-01T10:42:36;24.05;49.81
71304;DHT22;59091;47.446;19.148;2022-09-01T10:45:02;23.74;48.82
71304;DHT22;59091;47.446;19.148;2022-09-01T10:47:30;24.03;49.33
71304;DHT22;59091;47.446;19.148;2022-09-01T10:50:04;24.14;48.16
71304;DHT22;59091;47.446;19.148;2022-09-01T10:55:14;23.75;46.69
71304;DHT22;59091;47.446;19.148;2022-09-01T10:57:47;23.88;46.27
71304;DHT22;59091;47.446;19.148;2022-09-01T11:03:31;23.62;47.31
71304;DHT22;59091;47.446;19.148;2022-09-01T11:05:58;23.52;47.25
71304;DHT22;59091;47.446;19.148;2022-09-01T11:13:38;23.50;46.99
71304;DHT22;59091;47.446;19.148;2022-09-01T11:18:53;23.94;45.82
71304;DHT22;59091;47.446;19.148;2022-09-01T11:21:29;23.67;44.46
71304;DHT22;59091;47.446;19.148;2022-09-01T11:27:00;23.64;43.61
71304;DHT22;59091;47.446;19.148;2022-09-01T11:29:52;23.96;44.13
71304;DHT22;59091;47.446;19.148;2022-09-01T11:32:20;23.85;43.01
71304;DHT22;59091;47.446;19.148;2022-09-01T11:34:48;23.63;41.62
71304;DHT22;59091;47.446;19.148;2022-09-01T11:37:16;23.66;41.41
71304;DHT22;59091;47.446;19.148;2022-09-01T11:40:01;23.74;41.76
71304;DHT22;59091;47.446;19.148;2022-09-01T11:42:32;24.01;41.88
71304;DHT22;59091;47.446;19.148;2022-09-01T11:45:04;24.07;40.45
71304;DHT22;59091;47.446;19.148;2022-09-01T11:47:40;23.83;38.78
71304;DHT22;59091;47.446;19.148;2022-09-01T11:53:07;23.97;39.80
71304;DHT22;59091;47.446;19.148;2022-09-01T11:55:45;24.13;38.77
71304;DHT22;59091;47.446;19.148;2022-09-01T11:58:33;24.17;40.02
71304;DHT22;59091;47.446;19.148;2022-09-01T12:01:14;24.01;39.28
71304;DHT22;59091;47.446;19.148;2022-09-01T12:03:40;24.05;40.45
71304;DHT22;59091;47.446;19.148;2022-09-01T12:06:09;24.34;38.95
71304;DHT22;59091;47.446;19.148;2022-09-01T12:08:40;24.38;38.24
71304;DHT22;59091;47.446;19.148;2022-09-01T12:11:12;24.47;38.53
71304;DHT22;59091;47.446;19.148;2022-09-01T12:14:03;24.62;38.36
71304;DHT22;59091;47.446;19.148;2022-09-01T12:16:31;24.51;36.83
71304;DHT22;59091;47.446;19.148;2022-09-01T12:18:59;24.48;37.38
71304;DHT22;59091;47.446;19.148;2022-09-01T12:21:54;24.34;36.50
71304;DHT22;59091;47.446;19.148;2022-09-01T12:24:23;24.51;37.42
71304;DHT22;59091;47.446;19.148;2022-09-01T12:26:53;24.69;38.88
71304;DHT22;59091;47.446;19.148;2022-09-01T12:29:20;24.83;37.39
71304;DHT22;59091;47.446;19.148;2022-09-01T12:31:49;24.61;37.98
71304;DHT22;59091;47.446;19.148;2022-09-01T12:39:45;24.65;35.80
71304;DHT22;59091;47.446;19.148;2022-09-01T12:42:24;24.83;36.00
71304;DHT22;59091;47.446;19.148;2022-09-01T12:45:00;24.82;35.89
71304;DHT22;59091;47.446;19.148;2022-09-01T12:50:30;24.79;36.91
71304;DHT22;59091;47.446;19.148;2022-09-01T12:52:54;24.93;35.41
71304;DHT22;59091;47.446;19.148;2022-09-01T12:55:28;25.06;35.70
71304;DHT22;59091;47.446;19.148;2022-09-01T12:57:56;25.10;36.34
71304;DHT22;59091;47.446;19.148;2022-09-01T13:00:24;25.07;35.91
71304;DHT22;59091;47.446;19.148;2022-09-01T13:03:13;25.16;35.11
71304;DHT22;59091;47.446;19.148;2022-09-01T13:05:41;25.09;34.59
71304;DHT22;59091;47.446;19.148;2022-09-01T13:08:10;24.92;39.84
71304;DHT22;59091;47.446;19.148;2022-09-01T13:10:53;24.73;34.88
71304;DHT22;59091;47.446;19.148;2022-09-01T13:13:21;24.83;37.83
71304;DHT22;59091;47.446;19.148;2022-09-01T13:15:51;24.83;36.18
71304;DHT22;59091;47.446;19.148;2022-09-01T13:18:18;24.66;35.05
71304;DHT22;59091;47.446;19.148;2022-09-01T13:20:45;24.87;36.74
71304;DHT22;59091;47.446;19.148;2022-09-01T13:23:11;24.96;35.69
71304;DHT22;59091;47.446;19.148;2022-09-01T13:25:37;24.96;34.67
71304;DHT22;59091;47.446;19.148;2022-09-01T13:28:02;24.85;35.67
71304;DHT22;59091;47.446;19.148;2022-09-01T13:30:28;24.95;34.90
71304;DHT22;59091;47.446;19.148;2022-09-01T13:32:55;25.07;34.72
71304;DHT22;59091;47.446;19.148;2022-09-01T13:35:21;25.34;34.57
71304;DHT22;59091;47.446;19.148;2022-09-01T13:37:48;25.50;34.19
71304;DHT22;59091;47.446;19.148;2022-09-01T13:40:16;25.68;33.55
71304;DHT22;59091;47.446;19.148;2022-09-01T13:42:42;25.53;33.13
71304;DHT22;59091;47.446;19.148;2022-09-01T13:45:08;25.45;34.21
71304;DHT22;59091;47.446;19.148;2022-09-01T13:47:37;25.60;34.77
71304;DHT22;59091;47.446;19.148;2022-09-01T13:50:04;25.63;33.68
71304;DHT22;59091;47.446;19.148;2022-09-01T13:52:29;25.94;35.36
71304;DHT22;59091;47.446;19.148;2022-09-01T13:54:54;25.89;36.72
71304;DHT22;59091;47.446;19.148;2022-09-01T13:57:20;26.01;33.26
71304;DHT22;59091;47.446;19.148;2022-09-01T13:59:45;25.81;32.67
71304;DHT22;59091;47.446;19.148;2022-09-01T14:02:11;25.58;32.61
71304;DHT22;59091;47.446;19.148;2022-09-01T14:04:36;25.45;33.75
71304;DHT22;59091;47.446;19.148;2022-09-01T14:07:02;25.68;33.35
71304;DHT22;59091;47.446;19.148;2022-09-01T14:24:20;25.92;33.54
71304;DHT22;59091;47.446;19.148;2022-09-01T14:26:46;26.05;34.22
71304;DHT22;59091;47.446;19.148;2022-09-01T14:29:12;26.21;34.16
71304;DHT22;59091;47.446;19.148;2022-09-01T14:31:37;25.89;31.71
71304;DHT22;59091;47.446;19.148;2022-09-01T14:34:03;25.71;31.53
71304;DHT22;59091;47.446;19.148;2022-09-01T14:36:29;25.33;31.88
71304;DHT22;59091;47.446;19.148;2022-09-01T14:38:55;25.47;32.12
71304;DHT22;59091;47.446;19.148;2022-09-01T14:41:22;25.60;31.34
71304;DHT22;59091;47.446;19.148;2022-09-01T14:43:50;25.58;31.62
71304;DHT22;59091;47.446;19.148;2022-09-01T14:46:16;25.71;32.11
71304;DHT22;59091;47.446;19.148;2022-09-01T14:48:44;25.82;33.20
71304;DHT22;59091;47.446;19.148;2022-09-01T14:51:19;25.89;32.47
71304;DHT22;59091;47.446;19.148;2022-09-01T14:53:44;25.75;32.91
71304;DHT22;59091;47.446;19.148;2022-09-01T14:56:10;25.75;34.21
71304;DHT22;59091;47.446;19.148;2022-09-01T14:58:35;25.77;32.21
71304;DHT22;59091;47.446;19.148;2022-09-01T15:01:00;25.67;32.44
71304;DHT22;59091;47.446;19.148;2022-09-01T15:03:26;25.80;33.49
71304;DHT22;59091;47.446;19.148;2022-09-01T15:05:52;25.78;32.66
71304;DHT22;59091;47.446;19.148;2022-09-01T15:08:19;25.74;31.39
71304;DHT22;59091;47.446;19.148;2022-09-01T15:10:45;25.37;31.46
71304;DHT22;59091;47.446;19.148;2022-09-01T15:13:10;25.58;34.50
71304;DHT22;59091;47.446;19.148;2022-09-01T15:15:37;25.61;33.89
71304;DHT22;59091;47.446;19.148;2022-09-01T15:18:02;25.67;32.95
71304;DHT22;59091;47.446;19.148;2022-09-01T15:20:28;25.67;34.08
71304;DHT22;59091;47.446;19.148;2022-09-01T15:23:11;25.89;34.63
71304;DHT22;59091;47.446;19.148;2022-09-01T15:25:36;25.85;33.32
71304;DHT22;59091;47.446;19.148;2022-09-01T15:28:03;25.81;35.12
71304;DHT22;59091;47.446;19.148;2022-09-01T15:30:28;25.95;34.59
71304;DHT22;59091;47.446;19.148;2022-09-01T15:32:54;25.98;34.68
71304;DHT22;59091;47.446;19.148;2022-09-01T15:35:20;26.04;34.03
71304;DHT22;59091;47.446;19.148;2022-09-01T15:37:47;25.68;33.38
71304;DHT22;59091;47.446;19.148;2022-09-01T15:40:12;25.65;32.65
71304;DHT22;59091;47.446;19.148;2022-09-01T15:42:38;25.47;32.41
71304;DHT22;59091;47.446;19.148;2022-09-01T15:45:06;25.30;33.62
71304;DHT22;59091;47.446;19.148;2022-09-01T15:47:32;25.38;33.64
71304;DHT22;59091;47.446;19.148;2022-09-01T15:49:58;25.40;32.62
71304;DHT22;59091;47.446;19.148;2022-09-01T15:52:24;25.40;33.27
71304;DHT22;59091;47.446;19.148;2022-09-01T15:54:51;25.38;33.89
71304;DHT22;59091;47.446;19.148;2022-09-01T15:57:16;25.47;37.13
71304;DHT22;59091;47.446;19.148;2022-09-01T15:59:42;25.45;35.67
71304;DHT22;59091;47.446;19.148;2022-09-01T16:02:08;25.23;33.70
71304;DHT22;59091;47.446;19.148;2022-09-01T16:04:34;25.17;35.03
71304;DHT22;59091;47.446;19.148;2022-09-01T16:07:01;25.14;36.07
71304;DHT22;59091;47.446;19.148;2022-09-01T16:09:26;25.24;35.73
71304;DHT22;59091;47.446;19.148;2022-09-01T16:11:52;25.06;35.35
71304;DHT22;59091;47.446;19.148;2022-09-01T16:14:18;25.09;36.33
71304;DHT22;59091;47.446;19.148;2022-09-01T16:17:12;24.75;35.34
71304;DHT22;59091;47.446;19.148;2022-09-01T16:24:45;24.76;37.32
71304;DHT22;59091;47.446;19.148;2022-09-01T16:27:15;24.79;38.88
71304;DHT22;59091;47.446;19.148;2022-09-01T16:29:54;24.79;35.79
71304;DHT22;59091;47.446;19.148;2022-09-01T16:32:20;24.63;36.51
71304;DHT22;59091;47.446;19.148;2022-09-01T16:34:48;24.73;37.97
71304;DHT22;59091;47.446;19.148;2022-09-01T16:42:36;24.75;35.23